Etusivu
METAR-TAF:

METAR-TAF

Lentoasemat :

Bowers Field

Ellensburg, Washington, Yhdysvallat

Leveyspiiri: 47-02-01N, Pituuspiiri: 120-31-45W, korkeus merenpinnasta: 536 m

Tämänhetkinen sää

Tämä raportti tehtiin 31 minuuttia sitten, kello 15.53 UTC
Tuuli 3 kn koillisesta
Lämpötila 4°C
Kosteus 81%
Ilmanpaine 1017 hPa
Näkyvyys: 16.1 km
selkeää

METAR: KELN 181553Z AUTO 04003KT 10SM CLR 04/01 A3003 RMK AO2 SLP173 T00390011

Aika: 08:24 (16:24 UTC)


TAF: puuttuu

Säähavainnot ja -ennusteet yli 4000 lentoasemalta (METAR- ja TAF-raportit).

Käytössä olevat sääasemat on merkitty karttaan keltaisilla ja punaisilla pisteillä.

Aseta hiiri pisteen päälle nähdäksesi sääaseman nimen.

Klikkaa sitten nähdäksesi säähavainnot ja -ennusteet.

Kartan vaihtaminen: klikkaa mustalla rastilla varustettuja vihreitä pisteitä, niin voit zoomata sisään; viivalla varustettua vihreää pistettä, niin voit zoomata ulos tai vihreitä nuolia, niin pääset viereisille kartoille.


METAR-TAF: